Time;durP1;ratioP1;P1;durP2;ratioP2;P2;SDS_P1;SDS_P2;PMS_P1;PMS_P2;Temp;Humidity;BMP_temperature;BMP_pressure;BME280_temperature;BME280_humidity;BME280_pressure;Samples;Min_cycle;Max_cycle;Signal;HPM_P1;HPM_P2
2023/01/20 00:01:01;;;;;;;13.30;3.78;;;-1.10;99.90;;;;;;6211230;23;20095;-85
2023/01/20 00:03:27;;;;;;;6.97;2.60;;;-0.50;99.90;;;;;;6212133;23;20058;-86
2023/01/20 00:05:52;;;;;;;6.68;2.58;;;-0.80;99.90;;;;;;6186768;23;20012;-85
2023/01/20 00:08:18;;;;;;;5.07;2.75;;;-0.70;99.90;;;;;;6187030;23;20023;-85
2023/01/20 00:10:44;;;;;;;6.53;3.22;;;-0.50;99.90;;;;;;6186811;23;20020;-85
2023/01/20 00:13:09;;;;;;;9.18;3.08;;;0.40;99.90;;;;;;6213405;23;20096;-85
2023/01/20 00:15:35;;;;;;;9.48;3.33;;;0.30;99.90;;;;;;6211315;23;20027;-84
2023/01/20 00:18:01;;;;;;;6.53;3.00;;;-0.10;99.90;;;;;;6180880;23;20119;-85
2023/01/20 00:20:26;;;;;;;6.55;2.78;;;-0.50;99.90;;;;;;6182487;23;20016;-85
2023/01/20 00:22:52;;;;;;;8.55;3.15;;;-1.10;99.90;;;;;;6181121;23;20055;-85
2023/01/20 00:25:18;;;;;;;9.32;3.25;;;-1.10;99.90;;;;;;6183228;23;20398;-85
2023/01/20 00:27:45;;;;;;;7.35;3.72;;;-0.40;99.90;;;;;;6183606;23;20032;-85
2023/01/20 00:30:11;;;;;;;9.38;3.90;;;-1.50;99.90;;;;;;6157636;23;20028;-85
2023/01/20 00:32:43;;;;;;;8.23;4.18;;;-1.10;99.90;;;;;;6183239;23;20025;-85
2023/01/20 00:35:10;;;;;;;10.82;4.10;;;-0.40;99.90;;;;;;6183847;23;20043;-85
2023/01/20 00:37:37;;;;;;;9.02;3.67;;;-1.10;99.90;;;;;;6183406;23;20123;-85
2023/01/20 00:40:03;;;;;;;9.32;4.22;;;0.00;99.90;;;;;;6183282;23;20287;-85
2023/01/20 00:42:29;;;;;;;7.78;4.38;;;-1.20;99.90;;;;;;6184429;23;20021;-85
2023/01/20 00:44:54;;;;;;;11.43;4.38;;;-0.90;99.90;;;;;;6181966;23;20558;-85
2023/01/20 00:47:20;;;;;;;11.10;4.63;;;-0.40;99.90;;;;;;6158329;23;20060;-84
2023/01/20 00:49:46;;;;;;;7.63;4.18;;;-1.00;99.90;;;;;;6183120;23;20016;-85
2023/01/20 00:52:12;;;;;;;10.45;5.22;;;-0.60;99.90;;;;;;6158481;23;20100;-85
2023/01/20 00:54:38;;;;;;;11.43;5.80;;;-0.50;99.90;;;;;;6183770;23;20056;-85
2023/01/20 00:57:04;;;;;;;10.50;6.35;;;-1.00;99.90;;;;;;6183260;23;20063;-85
2023/01/20 00:59:29;;;;;;;12.25;6.82;;;-0.50;99.90;;;;;;6182609;23;20497;-84
2023/01/20 01:01:55;;;;;;;12.10;6.72;;;-0.80;99.90;;;;;;6183415;23;20024;-85
2023/01/20 01:04:21;;;;;;;13.65;7.00;;;-0.90;99.90;;;;;;6158575;23;20023;-85
2023/01/20 01:06:48;;;;;;;14.85;6.80;;;-0.50;99.90;;;;;;6182865;23;20020;-85
2023/01/20 01:09:14;;;;;;;16.42;7.50;;;-0.20;99.90;;;;;;6158660;23;20016;-85
2023/01/20 01:11:40;;;;;;;9.07;6.13;;;-0.10;99.90;;;;;;6183664;23;20028;-84
2023/01/20 01:14:05;;;;;;;10.93;6.75;;;-1.30;99.90;;;;;;6157896;23;20435;-84
2023/01/20 01:16:31;;;;;;;14.77;8.90;;;-0.90;99.90;;;;;;6182800;23;20032;-85
2023/01/20 01:18:57;;;;;;;15.55;9.27;;;-0.70;99.90;;;;;;6200678;23;20022;-85
2023/01/20 01:21:22;;;;;;;20.10;11.68;;;-0.80;99.90;;;;;;6213678;23;20019;-85
2023/01/20 01:23:50;;;;;;;33.42;13.32;;;-1.80;99.90;;;;;;6212919;23;20066;-84
2023/01/20 01:26:16;;;;;;;38.78;15.40;;;-1.30;99.90;;;;;;6212741;23;20024;-84
2023/01/20 01:28:42;;;;;;;42.08;16.10;;;-1.20;99.90;;;;;;6213350;23;20139;-84
2023/01/20 01:31:08;;;;;;;51.70;18.05;;;-0.10;99.90;;;;;;6212715;23;20027;-84
2023/01/20 01:33:35;;;;;;;44.17;16.45;;;-1.10;99.90;;;;;;6187469;23;20318;-85
2023/01/20 01:36:03;;;;;;;44.05;16.77;;;-0.50;99.90;;;;;;6212694;23;20035;-85
2023/01/20 01:38:29;;;;;;;64.40;17.60;;;-1.00;99.90;;;;;;6188578;23;20023;-85
2023/01/20 01:40:55;;;;;;;63.35;17.88;;;-0.90;99.90;;;;;;6211473;23;20020;-85
2023/01/20 01:43:27;;;;;;;60.72;17.00;;;0.10;99.90;;;;;;6189015;23;20028;-85
2023/01/20 01:45:53;;;;;;;55.53;18.38;;;0.20;99.90;;;;;;6211649;23;20056;-85
2023/01/20 01:48:30;;;;;;;43.65;17.45;;;0.40;99.90;;;;;;6213236;23;20028;-85
2023/01/20 01:51:03;;;;;;;43.08;18.20;;;-0.70;99.90;;;;;;6212868;23;20058;-85
2023/01/20 01:53:32;;;;;;;35.45;16.60;;;-0.80;99.90;;;;;;6187973;23;20024;-85
2023/01/20 01:56:00;;;;;;;38.20;17.75;;;0.70;99.90;;;;;;6211906;23;20422;-85
2023/01/20 01:58:31;;;;;;;41.67;16.40;;;-0.60;99.90;;;;;;6213180;23;20024;-85
2023/01/20 02:00:57;;;;;;;44.55;18.15;;;0.50;99.90;;;;;;6185870;23;20086;-84
2023/01/20 02:03:23;;;;;;;37.90;18.50;;;-0.50;99.90;;;;;;6187902;23;20452;-85
2023/01/20 02:05:51;;;;;;;47.35;21.73;;;-0.70;99.90;;;;;;6212757;23;20012;-84
2023/01/20 02:08:18;;;;;;;37.70;19.30;;;-1.20;99.90;;;;;;6212364;23;20019;-85
2023/01/20 02:10:44;;;;;;;33.70;17.83;;;0.70;99.90;;;;;;6187404;23;20468;-85
2023/01/20 02:13:10;;;;;;;45.90;20.48;;;-0.70;99.90;;;;;;6213890;23;20031;-84
2023/01/20 02:15:51;;;;;;;40.97;20.45;;;0.00;99.90;;;;;;6187035;23;20071;-85
2023/01/20 02:18:29;;;;;;;37.42;19.42;;;-0.70;99.90;;;;;;6213304;23;20020;-85
2023/01/20 02:21:02;;;;;;;46.05;20.38;;;-0.70;99.90;;;;;;6187149;23;20127;-85
2023/01/20 02:24:01;;;;;;;42.78;19.67;;;-0.80;99.90;;;;;;6213152;23;20444;-84
2023/01/20 02:26:51;;;;;;;40.78;21.00;;;-0.80;99.90;;;;;;6238925;23;20008;-85
2023/01/20 02:29:30;;;;;;;32.88;15.90;;;-0.90;99.90;;;;;;6212409;23;20400;-84
2023/01/20 02:32:14;;;;;;;29.35;15.70;;;-0.90;99.90;;;;;;6212203;23;20372;-85
2023/01/20 02:35:06;;;;;;;32.42;16.60;;;-0.90;99.90;;;;;;6213454;23;20027;-84
2023/01/20 02:37:43;;;;;;;32.03;15.97;;;-0.90;99.90;;;;;;6211609;23;20174;-84
2023/01/20 02:40:27;;;;;;;27.77;16.13;;;-0.30;99.90;;;;;;6213240;23;20058;-84
2023/01/20 02:43:06;;;;;;;36.83;16.85;;;-0.80;99.90;;;;;;6187726;23;20016;-85
2023/01/20 02:45:44;;;;;;;33.00;17.13;;;-0.80;99.90;;;;;;6212984;23;20427;-84
2023/01/20 02:48:20;;;;;;;37.15;18.02;;;-0.70;99.90;;;;;;6213344;23;20016;-85
2023/01/20 02:50:58;;;;;;;34.92;17.42;;;-0.20;99.90;;;;;;6186735;23;20098;-85
2023/01/20 02:53:28;;;;;;;40.30;18.52;;;0.30;99.90;;;;;;6212402;23;20027;-85
2023/01/20 02:55:54;;;;;;;40.50;19.52;;;0.10;99.90;;;;;;6187023;23;20016;-85
2023/01/20 02:58:29;;;;;;;35.38;17.90;;;0.10;99.90;;;;;;6187351;23;20102;-84
2023/01/20 03:01:02;;;;;;;45.75;19.73;;;-0.30;99.90;;;;;;6210942;23;20095;-84
2023/01/20 03:03:34;;;;;;;35.42;18.33;;;0.40;99.90;;;;;;6213028;23;20483;-84
2023/01/20 03:06:04;;;;;;;37.92;19.55;;;0.20;99.90;;;;;;6211230;23;20012;-85
2023/01/20 03:08:32;;;;;;;40.85;21.25;;;-0.10;99.90;;;;;;6212538;23;20024;-85
2023/01/20 03:11:03;;;;;;;37.78;21.13;;;0.20;99.90;;;;;;6186419;23;20052;-85
2023/01/20 03:13:36;;;;;;;44.63;21.75;;;0.50;99.90;;;;;;6211994;23;20020;-84
2023/01/20 03:16:08;;;;;;;36.55;20.02;;;-0.50;99.90;;;;;;6211447;23;20281;-85
2023/01/20 03:18:35;;;;;;;38.83;20.98;;;-0.50;99.90;;;;;;6236583;22;20051;-85
2023/01/20 03:21:02;;;;;;;34.13;19.38;;;0.30;99.90;;;;;;6212697;23;20067;-85
2023/01/20 03:23:32;;;;;;;38.25;19.73;;;-0.50;99.90;;;;;;6212524;23;20374;-85
2023/01/20 03:25:58;;;;;;;32.00;18.75;;;-0.60;99.90;;;;;;6210982;23;20028;-85
2023/01/20 03:28:24;;;;;;;30.33;18.13;;;-0.60;99.90;;;;;;6187470;23;20027;-85
2023/01/20 03:30:51;;;;;;;37.00;19.85;;;-0.50;99.90;;;;;;6211271;23;20035;-85
2023/01/20 03:33:17;;;;;;;33.85;18.48;;;0.60;99.90;;;;;;6186918;23;20070;-85
2023/01/20 03:35:43;;;;;;;34.05;19.98;;;0.60;99.90;;;;;;6212002;23;20028;-85
2023/01/20 03:38:10;;;;;;;33.83;20.85;;;-0.50;99.90;;;;;;6213098;23;20052;-85
2023/01/20 03:40:44;;;;;;;38.55;20.25;;;0.70;99.90;;;;;;6186057;23;20027;-85
2023/01/20 03:43:18;;;;;;;42.10;22.63;;;-0.50;99.90;;;;;;6212803;23;20091;-85
2023/01/20 03:45:54;;;;;;;40.13;22.80;;;-0.50;99.90;;;;;;6186254;23;20012;-85
2023/01/20 03:48:27;;;;;;;43.35;23.27;;;0.80;99.90;;;;;;6186369;23;20016;-85
2023/01/20 03:50:55;;;;;;;50.28;24.65;;;-0.40;99.90;;;;;;6212008;23;20020;-85
2023/01/20 03:53:44;;;;;;;49.95;26.02;;;-0.30;99.90;;;;;;6212272;23;20095;-85
2023/01/20 03:56:20;;;;;;;51.33;25.30;;;-0.30;99.90;;;;;;6212740;23;20023;-85
2023/01/20 03:58:50;;;;;;;55.75;26.58;;;0.10;99.90;;;;;;6212270;23;20017;-85
2023/01/20 04:01:18;;;;;;;57.78;27.15;;;0.00;99.90;;;;;;6212511;23;20008;-85
2023/01/20 04:03:50;;;;;;;57.25;27.48;;;-0.10;99.90;;;;;;6213940;23;20016;-85
2023/01/20 04:06:18;;;;;;;54.28;26.20;;;-0.20;99.90;;;;;;6188676;23;20020;-85
2023/01/20 04:08:50;;;;;;;59.20;25.92;;;0.50;99.90;;;;;;6212886;23;20027;-85
2023/01/20 04:11:16;;;;;;;61.38;26.33;;;0.20;99.90;;;;;;6188527;23;20023;-86
2023/01/20 04:13:41;;;;;;;55.38;25.58;;;1.10;99.90;;;;;;6214515;23;20020;-86
2023/01/20 04:16:13;;;;;;;52.55;25.42;;;-0.40;99.90;;;;;;6212076;23;20344;-85
2023/01/20 04:18:41;;;;;;;52.85;26.95;;;0.40;99.90;;;;;;6214563;23;20035;-86
2023/01/20 04:21:12;;;;;;;53.15;25.08;;;0.90;99.90;;;;;;6188498;23;20028;-86
2023/01/20 04:23:43;;;;;;;53.45;25.63;;;-0.10;99.90;;;;;;6213451;23;20099;-85
2023/01/20 04:26:09;;;;;;;55.47;25.38;;;1.20;99.90;;;;;;6213788;23;20012;-86
2023/01/20 04:28:35;;;;;;;53.05;25.08;;;1.20;99.90;;;;;;6213678;23;20500;-86
2023/01/20 04:31:00;;;;;;;51.35;24.15;;;0.70;99.90;;;;;;6211999;23;20020;-86
2023/01/20 04:33:26;;;;;;;50.03;24.75;;;-0.40;99.90;;;;;;6214596;23;20024;-85
2023/01/20 04:35:52;;;;;;;53.95;24.25;;;-0.30;99.90;;;;;;6212364;23;20012;-85
2023/01/20 04:38:18;;;;;;;53.75;24.45;;;-0.20;99.90;;;;;;6188891;23;20047;-86
2023/01/20 04:40:43;;;;;;;55.10;25.55;;;1.20;99.90;;;;;;6214042;23;20024;-86
2023/01/20 04:43:10;;;;;;;51.17;24.25;;;-0.40;99.90;;;;;;6187405;23;20070;-86
2023/01/20 04:45:37;;;;;;;57.33;26.42;;;1.20;99.90;;;;;;6244249;22;20015;-85
2023/01/20 04:48:07;;;;;;;53.03;23.77;;;0.00;99.90;;;;;;6218487;22;20023;-84
2023/01/20 04:50:37;;;;;;;50.08;24.20;;;-0.20;99.90;;;;;;6243777;22;20024;-84
2023/01/20 04:53:03;;;;;;;54.30;25.00;;;1.10;99.90;;;;;;6243367;22;20220;-84
2023/01/20 04:55:30;;;;;;;51.42;24.33;;;0.20;99.90;;;;;;6244181;22;20012;-83
2023/01/20 04:57:56;;;;;;;50.90;23.10;;;0.00;99.90;;;;;;6242909;22;20020;-84
2023/01/20 05:00:22;;;;;;;57.28;23.60;;;1.10;99.90;;;;;;6243173;22;20015;-84
2023/01/20 05:02:47;;;;;;;49.97;23.50;;;-0.20;99.90;;;;;;6243647;22;20047;-84
2023/01/20 05:05:13;;;;;;;56.28;23.27;;;0.20;99.90;;;;;;6242781;22;20016;-84
2023/01/20 05:07:39;;;;;;;51.05;24.13;;;-0.30;99.90;;;;;;6219228;22;20007;-84
2023/01/20 05:10:05;;;;;;;50.42;22.70;;;0.50;99.90;;;;;;6243583;22;20447;-84
2023/01/20 05:12:31;;;;;;;50.85;22.65;;;-0.40;99.90;;;;;;6268555;22;20026;-83
2023/01/20 05:14:57;;;;;;;49.25;22.30;;;0.10;99.90;;;;;;6242820;22;20376;-84
2023/01/20 05:17:22;;;;;;;51.58;21.90;;;-0.40;99.90;;;;;;6243008;22;20412;-84
2023/01/20 05:19:48;;;;;;;48.30;22.08;;;0.70;99.90;;;;;;6240781;22;20012;-84
2023/01/20 05:22:14;;;;;;;52.25;22.45;;;-0.30;99.90;;;;;;6217383;22;20031;-85
2023/01/20 05:24:39;;;;;;;48.42;21.27;;;0.10;99.90;;;;;;6241938;22;20400;-84
2023/01/20 05:27:05;;;;;;;45.13;21.55;;;1.00;99.90;;;;;;6240512;22;20440;-84
2023/01/20 05:29:31;;;;;;;50.50;21.85;;;0.20;99.90;;;;;;6241931;22;20093;-85
2023/01/20 05:31:57;;;;;;;43.97;21.27;;;-0.30;99.90;;;;;;6240527;22;20030;-84
2023/01/20 05:34:22;;;;;;;46.05;21.85;;;-0.80;99.90;;;;;;6242345;22;20502;-84
2023/01/20 05:36:52;;;;;;;49.10;21.75;;;-0.60;99.90;;;;;;6241056;22;20098;-84
2023/01/20 05:39:19;;;;;;;45.20;21.80;;;0.50;99.90;;;;;;6241648;22;20016;-84
2023/01/20 05:41:45;;;;;;;50.47;22.15;;;-0.50;99.90;;;;;;6240915;22;20018;-84
2023/01/20 05:44:12;;;;;;;46.75;22.45;;;0.80;99.90;;;;;;6241678;22;20479;-84
2023/01/20 05:46:37;;;;;;;47.70;22.17;;;0.00;99.90;;;;;;6240813;22;20090;-84
2023/01/20 05:49:03;;;;;;;49.80;22.15;;;-0.50;99.90;;;;;;6216476;22;20834;-83
2023/01/20 05:51:29;;;;;;;46.33;21.83;;;-0.50;99.90;;;;;;6242466;22;20432;-84
2023/01/20 05:53:54;;;;;;;49.35;22.75;;;0.50;99.90;;;;;;6265719;22;20015;-84
2023/01/20 05:56:20;;;;;;;47.67;22.83;;;0.30;99.90;;;;;;6217077;22;20394;-85
2023/01/20 05:58:46;;;;;;;46.17;22.45;;;0.20;99.90;;;;;;6241791;22;20012;-85
2023/01/20 06:01:15;;;;;;;51.17;23.75;;;-0.20;99.90;;;;;;6215038;22;20408;-85
2023/01/20 06:03:41;;;;;;;43.85;21.33;;;-0.30;99.90;;;;;;6242637;22;20016;-84
2023/01/20 06:06:13;;;;;;;48.55;22.15;;;-0.40;99.90;;;;;;6216492;22;20020;-84
2023/01/20 06:08:38;;;;;;;46.05;23.25;;;-1.20;99.90;;;;;;6241503;22;20113;-84
2023/01/20 06:11:04;;;;;;;53.13;23.40;;;0.90;99.90;;;;;;6241431;22;20035;-83
2023/01/20 06:13:30;;;;;;;48.55;22.90;;;-0.40;99.90;;;;;;6217715;22;20074;-85
2023/01/20 06:15:56;;;;;;;46.78;22.88;;;0.90;99.90;;;;;;6238750;22;20024;-85
2023/01/20 06:18:23;;;;;;;52.80;23.92;;;0.50;99.90;;;;;;5593046;22;15065188;-84
2023/01/20 06:20:52;;;;;;;54.58;23.30;;;0.00;99.90;;;;;;6217185;22;20546;-84
2023/01/20 06:23:18;;;;;;;55.65;23.30;;;0.20;99.90;;;;;;6242507;22;20082;-84
2023/01/20 06:25:44;;;;;;;49.88;25.10;;;1.00;99.90;;;;;;6217474;22;20095;-85
2023/01/20 06:28:09;;;;;;;53.10;23.00;;;-0.50;99.90;;;;;;6242678;22;20436;-84
2023/01/20 06:30:35;;;;;;;49.55;23.67;;;-0.60;99.90;;;;;;6217842;22;20109;-84
2023/01/20 06:33:01;;;;;;;49.17;22.58;;;-0.20;99.90;;;;;;6217009;22;20028;-85
2023/01/20 06:35:27;;;;;;;60.88;25.05;;;-0.40;99.90;;;;;;6243127;22;20318;-84
2023/01/20 06:37:57;;;;;;;52.22;22.88;;;0.00;99.90;;;;;;6217904;22;20057;-84
2023/01/20 06:40:23;;;;;;;46.53;23.48;;;-0.40;99.90;;;;;;6243841;22;20135;-84
2023/01/20 06:42:49;;;;;;;50.60;22.58;;;0.50;99.90;;;;;;6241821;22;20063;-84
2023/01/20 06:45:15;;;;;;;57.10;24.73;;;-0.80;99.90;;;;;;6242508;22;20527;-85
2023/01/20 06:47:41;;;;;;;52.42;24.88;;;-0.30;99.90;;;;;;6242999;22;20019;-84
2023/01/20 06:50:07;;;;;;;48.03;23.88;;;0.00;99.90;;;;;;6241569;22;20057;-84
2023/01/20 06:52:33;;;;;;;55.63;24.35;;;-0.30;99.90;;;;;;6217890;22;20375;-84
2023/01/20 06:54:59;;;;;;;48.78;24.58;;;-0.60;99.90;;;;;;6242636;22;20019;-84
2023/01/20 06:57:25;;;;;;;54.67;24.05;;;-0.30;99.90;;;;;;6216997;22;20020;-85
2023/01/20 06:59:50;;;;;;;48.40;24.15;;;-0.80;99.90;;;;;;6242375;22;20463;-85
2023/01/20 07:02:16;;;;;;;48.95;23.27;;;-0.30;99.90;;;;;;6243245;22;20016;-85
2023/01/20 07:04:44;;;;;;;50.53;24.58;;;0.20;99.90;;;;;;6217289;22;20069;-85
2023/01/20 07:07:14;;;;;;;45.65;23.90;;;-0.80;99.90;;;;;;6243441;22;20016;-85
2023/01/20 07:09:42;;;;;;;49.50;25.15;;;-0.40;99.90;;;;;;6242950;22;20337;-84
2023/01/20 07:12:07;;;;;;;47.97;23.10;;;-0.30;99.90;;;;;;6216874;22;20015;-85
2023/01/20 07:14:35;;;;;;;46.55;23.38;;;-0.30;99.90;;;;;;6241707;22;20094;-85
2023/01/20 07:17:12;;;;;;;50.35;24.63;;;-0.80;99.90;;;;;;6234853;22;20030;-85
2023/01/20 07:19:41;;;;;;;48.58;24.45;;;-0.30;99.90;;;;;;6216497;22;20024;-86
2023/01/20 07:22:07;;;;;;;49.78;24.27;;;0.00;99.90;;;;;;6238307;22;20525;-84
2023/01/20 07:24:38;;;;;;;45.15;22.83;;;0.90;99.90;;;;;;6268125;22;20090;-85
2023/01/20 07:27:04;;;;;;;47.63;24.30;;;-0.20;99.90;;;;;;6216628;22;20026;-85
2023/01/20 07:29:36;;;;;;;43.97;24.35;;;;;;;;;;6217780;22;20094;-85
2023/01/20 07:32:05;;;;;;;44.88;24.58;;;-0.30;99.90;;;;;;6215256;22;20539;-85
2023/01/20 07:34:31;;;;;;;50.10;25.65;;;-0.30;99.90;;;;;;6217291;22;20020;-85
2023/01/20 07:37:00;;;;;;;51.90;25.60;;;0.70;99.90;;;;;;6270850;22;20020;-84
2023/01/20 07:39:42;;;;;;;49.53;25.42;;;0.50;99.90;;;;;;6244057;22;20053;-86
2023/01/20 07:42:13;;;;;;;45.28;25.00;;;1.10;99.90;;;;;;6271043;22;20093;-86
2023/01/20 07:44:44;;;;;;;49.90;25.45;;;-0.30;99.90;;;;;;6219502;22;20030;-86
2023/01/20 07:47:15;;;;;;;49.50;26.38;;;-0.10;99.90;;;;;;6243460;22;20069;-85
2023/01/20 07:49:44;;;;;;;53.10;24.83;;;0.20;99.90;;;;;;6244016;22;20046;-86
2023/01/20 07:52:12;;;;;;;49.33;26.17;;;0.60;99.90;;;;;;6270892;22;20028;-86
2023/01/20 07:54:48;;;;;;;55.25;27.52;;;1.20;99.90;;;;;;6270124;22;20117;-86
2023/01/20 07:57:16;;;;;;;48.60;25.75;;;1.00;99.90;;;;;;6244910;22;20015;-86
2023/01/20 07:59:42;;;;;;;59.08;27.27;;;-0.30;99.90;;;;;;6268761;22;20078;-85
2023/01/20 08:02:09;;;;;;;51.85;27.13;;;-0.20;99.90;;;;;;6218851;22;20027;-85
2023/01/20 08:04:35;;;;;;;58.28;26.20;;;-0.20;99.90;;;;;;6244356;22;20020;-85
2023/01/20 08:07:01;;;;;;;51.88;26.48;;;0.20;99.90;;;;;;6217989;22;20031;-84
2023/01/20 08:09:27;;;;;;;59.58;28.50;;;0.90;99.90;;;;;;6219181;22;20428;-85
2023/01/20 08:11:53;;;;;;;56.65;27.45;;;-0.20;99.90;;;;;;6221273;22;20041;-85
2023/01/20 08:14:18;;;;;;;51.17;27.10;;;-0.30;99.90;;;;;;6242642;22;20016;-85
2023/01/20 08:16:44;;;;;;;54.47;26.55;;;0.70;99.90;;;;;;6243499;22;20031;-85
2023/01/20 08:19:10;;;;;;;54.38;27.83;;;1.10;99.90;;;;;;6213950;23;20051;-86
2023/01/20 08:21:36;;;;;;;53.53;27.65;;;0.90;99.90;;;;;;6238695;23;20032;-84
2023/01/20 08:24:09;;;;;;;56.45;28.75;;;1.00;99.90;;;;;;6238863;23;20401;-88
2023/01/20 08:26:35;;;;;;;57.92;28.90;;;-0.20;99.90;;;;;;6239317;23;20561;-85
2023/01/20 08:29:03;;;;;;;51.85;27.23;;;-0.10;99.90;;;;;;6238209;23;20042;-85
2023/01/20 08:31:29;;;;;;;51.50;28.30;;;-0.10;99.90;;;;;;6236568;23;20446;-85
2023/01/20 08:33:58;;;;;;;52.67;28.58;;;-0.40;99.90;;;;;;6242127;23;20028;-85
2023/01/20 08:36:27;;;;;;;49.85;26.75;;;-0.10;99.90;;;;;;6237836;23;20052;-86
2023/01/20 08:39:01;;;;;;;51.37;27.50;;;1.00;99.90;;;;;;6239105;23;20034;-86
2023/01/20 08:41:30;;;;;;;53.67;28.10;;;0.10;99.90;;;;;;6239155;23;20378;-85
2023/01/20 08:44:01;;;;;;;49.00;27.02;;;0.40;99.90;;;;;;6238214;23;20416;-85
2023/01/20 08:46:27;;;;;;;50.38;27.23;;;1.00;99.90;;;;;;6213158;23;20424;-85
2023/01/20 08:48:54;;;;;;;50.50;27.48;;;0.10;99.90;;;;;;6237826;23;20109;-86
2023/01/20 08:51:25;;;;;;;51.60;28.17;;;1.40;99.90;;;;;;6238673;23;20058;-85
2023/01/20 08:53:50;;;;;;;57.90;28.67;;;0.10;99.90;;;;;;6238452;23;20400;-86
2023/01/20 08:56:17;;;;;;;50.88;27.13;;;0.50;99.90;;;;;;6237427;23;20020;-85
2023/01/20 08:58:45;;;;;;;49.70;26.95;;;0.10;99.90;;;;;;6238882;23;20024;-85
2023/01/20 09:01:17;;;;;;;52.47;27.27;;;0.80;99.90;;;;;;6238141;23;20048;-85
2023/01/20 09:03:49;;;;;;;47.50;27.70;;;0.10;99.90;;;;;;6238181;23;20109;-85
2023/01/20 09:06:25;;;;;;;;;;;;;;;;;;;;;
2023/01/20 09:09:10;;;;;;;49.22;26.25;;;0.90;99.90;;;;;;6239059;23;20427;-85
2023/01/20 09:12:19;;;;;;;47.92;26.80;;;0.60;99.90;;;;;;6239195;23;20099;-88
2023/01/20 09:15:26;;;;;;;;;;;;;;;;;;;;;
2023/01/20 09:18:25;;;;;;;;;;;;;;;;;;;;;
2023/01/20 09:21:42;;;;;;;55.72;28.10;;;1.00;99.90;;;;;;6271359;22;20417;-86
2023/01/20 09:25:03;;;;;;;50.05;27.75;;;-0.70;99.90;;;;;;6245918;22;20032;-87
2023/01/20 09:27:22;;;;;;;46.88;27.95;;;1.20;99.90;;;;;;6237432;22;20034;-86
2023/01/20 09:31:27;;;;;;;;;;;;;;;;;;;;;
2023/01/20 09:44:44;;;;;;;49.20;27.98;;;-0.30;99.90;;;;;;6011929;23;20474;-88
2023/01/20 09:54:15;;;;;;;48.88;27.55;;;0.40;99.90;;;;;;6125623;22;20108;-88
2023/01/20 09:57:31;;;;;;;;;;;;;;;;;;;;;
2023/01/20 10:00:05;;;;;;;48.40;27.25;;;0.50;99.90;;;;;;6231597;22;20578;-88
2023/01/20 10:03:45;;;;;;;;;;;;;;;;;;;;;
2023/01/20 10:06:33;;;;;;;41.88;25.65;;;0.60;99.90;;;;;;6244311;22;20077;-88
2023/01/20 10:09:26;;;;;;;46.85;25.70;;;1.20;99.90;;;;;;6229756;22;20518;-87
2023/01/20 10:12:39;;;;;;;49.10;26.70;;;0.40;99.90;;;;;;6215603;22;20028;-88
2023/01/20 10:19:07;;;;;;;49.00;26.75;;;0.60;99.90;;;;;;6154253;22;20031;-88
2023/01/20 10:21:39;;;;;;;52.53;26.60;;;0.50;99.90;;;;;;6187388;23;20466;-88
2023/01/20 10:24:56;;;;;;;47.70;26.70;;;0.60;99.90;;;;;;6186884;23;20048;-88
2023/01/20 10:27:52;;;;;;;48.78;27.25;;;0.70;99.90;;;;;;6186792;23;20102;-88
2023/01/20 10:30:23;;;;;;;54.58;28.13;;;0.60;99.90;;;;;;6189202;23;20012;-88
2023/01/20 10:35:45;;;;;;;45.92;26.60;;;1.70;99.90;;;;;;6210852;23;20119;-83
2023/01/20 10:38:33;;;;;;;54.08;28.73;;;1.90;99.90;;;;;;6212623;23;20028;-83
2023/01/20 10:41:10;;;;;;;49.72;27.45;;;0.70;99.90;;;;;;6211535;23;20031;-82
2023/01/20 10:43:36;;;;;;;48.97;28.15;;;1.60;99.90;;;;;;6211762;23;20016;-82
2023/01/20 10:46:21;;;;;;;50.80;27.73;;;1.90;99.90;;;;;;6185885;23;20093;-81
2023/01/20 10:49:03;;;;;;;53.42;30.15;;;0.80;99.90;;;;;;6210591;23;20372;-82
2023/01/20 10:51:33;;;;;;;53.00;29.47;;;0.80;99.90;;;;;;6211692;23;20023;-83
2023/01/20 10:54:13;;;;;;;57.63;29.20;;;0.80;99.90;;;;;;6210947;23;20020;-82
2023/01/20 10:56:52;;;;;;;52.03;29.38;;;1.30;99.90;;;;;;6239431;23;20016;-83
2023/01/20 10:59:27;;;;;;;51.95;29.08;;;0.90;99.90;;;;;;6212716;23;20023;-83
2023/01/20 11:01:59;;;;;;;55.17;28.52;;;0.80;99.90;;;;;;6210997;23;20321;-83
2023/01/20 11:04:25;;;;;;;49.92;26.98;;;0.90;99.90;;;;;;6211804;23;20350;-82
2023/01/20 11:06:55;;;;;;;54.40;28.13;;;0.90;99.90;;;;;;6211350;23;20015;-82
2023/01/20 11:09:33;;;;;;;55.17;29.23;;;1.70;99.90;;;;;;6213114;23;20168;-82
2023/01/20 11:12:02;;;;;;;53.72;28.25;;;1.40;99.90;;;;;;6186839;23;20012;-82
2023/01/20 11:14:28;;;;;;;50.17;28.05;;;0.90;99.90;;;;;;6211757;23;20020;-82
2023/01/20 11:17:01;;;;;;;52.92;28.40;;;2.10;99.90;;;;;;6210398;23;20020;-82
2023/01/20 11:19:42;;;;;;;50.95;27.20;;;2.30;99.90;;;;;;6211875;23;20020;-82
2023/01/20 11:22:19;;;;;;;52.10;28.05;;;1.70;99.90;;;;;;6211684;23;20020;-82
2023/01/20 11:24:45;;;;;;;48.70;26.75;;;1.00;99.90;;;;;;6210673;23;20078;-81
2023/01/20 11:27:16;;;;;;;54.10;27.92;;;1.40;99.90;;;;;;6237615;23;20067;-81
2023/01/20 11:29:48;;;;;;;53.33;28.20;;;1.00;99.90;;;;;;6237256;23;20328;-81
2023/01/20 11:32:28;;;;;;;55.90;29.23;;;1.00;99.90;;;;;;6211558;23;20448;-81
2023/01/20 11:34:55;;;;;;;48.30;26.58;;;1.00;99.90;;;;;;6211485;23;20020;-81
2023/01/20 11:37:24;;;;;;;52.30;27.00;;;1.50;99.90;;;;;;6212408;23;20056;-81
2023/01/20 11:39:50;;;;;;;50.38;27.40;;;1.10;99.90;;;;;;6211244;23;20024;-81
2023/01/20 11:42:19;;;;;;;48.28;27.17;;;1.60;99.90;;;;;;6211892;23;20111;-81
2023/01/20 11:45:00;;;;;;;51.20;26.90;;;0.90;99.90;;;;;;6210203;23;20027;-80
2023/01/20 11:47:29;;;;;;;53.72;27.58;;;1.00;99.90;;;;;;6211946;23;20013;-80
2023/01/20 11:50:05;;;;;;;50.60;26.02;;;1.40;99.90;;;;;;6236581;23;20373;-80
2023/01/20 11:52:33;;;;;;;52.65;28.85;;;1.10;99.90;;;;;;6235787;23;20051;-80
2023/01/20 11:55:11;;;;;;;52.97;28.95;;;1.60;99.90;;;;;;6235708;23;20016;-81
2023/01/20 11:57:39;;;;;;;56.55;29.27;;;1.00;99.90;;;;;;6235447;23;20055;-81
2023/01/20 12:00:25;;;;;;;59.53;28.42;;;1.20;99.90;;;;;;6205332;23;20145;-80
2023/01/20 12:03:29;;;;;;;55.85;29.40;;;1.10;99.90;;;;;;6183180;23;20126;-81
2023/01/20 12:06:05;;;;;;;53.08;27.88;;;2.00;99.90;;;;;;6207836;23;20027;-80
2023/01/20 12:08:48;;;;;;;56.08;30.77;;;1.10;99.90;;;;;;6236128;23;20441;-80
2023/01/20 12:11:24;;;;;;;49.10;28.75;;;1.10;99.90;;;;;;6208700;23;20090;-80
2023/01/20 12:14:19;;;;;;;52.95;27.75;;;1.30;99.90;;;;;;6207583;23;20027;-80
2023/01/20 12:16:57;;;;;;;45.38;26.33;;;2.20;99.90;;;;;;6208143;23;20035;-81
2023/01/20 12:19:34;;;;;;;50.40;26.88;;;1.10;99.90;;;;;;6239165;22;20352;-81
2023/01/20 12:22:08;;;;;;;52.15;26.35;;;1.10;99.90;;;;;;6234414;23;20629;-81
2023/01/20 12:27:34;;;;;;;48.28;26.77;;;1.30;99.90;;;;;;6235105;23;20032;-82
2023/01/20 12:30:06;;;;;;;53.13;27.45;;;1.20;99.90;;;;;;6236041;23;20313;-82
2023/01/20 12:32:32;;;;;;;48.53;25.88;;;1.20;99.90;;;;;;6235998;22;20091;-83
2023/01/20 12:34:58;;;;;;;51.33;26.23;;;1.10;99.90;;;;;;6234790;23;20059;-82
2023/01/20 12:37:37;;;;;;;48.85;24.45;;;1.10;99.90;;;;;;6209972;23;20027;-82
2023/01/20 12:40:18;;;;;;;49.60;26.67;;;2.10;99.90;;;;;;6209619;23;20016;-83
2023/01/20 12:42:59;;;;;;;50.70;25.98;;;1.10;99.90;;;;;;6233747;23;20020;-83
2023/01/20 12:45:55;;;;;;;54.95;27.88;;;1.10;99.90;;;;;;6237785;23;20024;-82
2023/01/20 12:48:47;;;;;;;49.67;26.08;;;1.10;99.90;;;;;;6238640;23;20080;-82
2023/01/20 12:51:22;;;;;;;50.22;27.42;;;1.10;99.90;;;;;;6238476;23;20012;-81
2023/01/20 12:54:00;;;;;;;49.97;26.63;;;1.10;99.90;;;;;;6238005;23;20043;-82
2023/01/20 12:56:55;;;;;;;55.13;28.83;;;1.10;99.90;;;;;;6237993;23;20074;-83
2023/01/20 12:59:43;;;;;;;49.67;26.60;;;1.10;99.90;;;;;;6237892;23;20074;-81
2023/01/20 13:02:23;;;;;;;61.22;31.40;;;1.10;99.90;;;;;;6237297;22;20013;-81
2023/01/20 13:05:04;;;;;;;47.50;28.20;;;1.10;99.90;;;;;;6237472;23;20023;-81
2023/01/20 13:07:42;;;;;;;53.78;29.05;;;1.10;99.90;;;;;;6240394;23;20071;-80
2023/01/20 13:10:17;;;;;;;59.05;29.58;;;1.70;99.90;;;;;;6237263;23;20016;-83
2023/01/20 13:12:56;;;;;;;50.47;28.77;;;1.10;99.90;;;;;;6212869;23;20020;-84
2023/01/20 13:15:31;;;;;;;49.25;28.67;;;1.10;99.90;;;;;;6237931;23;20437;-80
2023/01/20 13:18:11;;;;;;;55.60;27.30;;;1.10;99.90;;;;;;6210882;23;20020;-81
2023/01/20 13:20:40;;;;;;;53.35;28.85;;;1.10;99.90;;;;;;6217554;22;20096;-81
2023/01/20 13:23:15;;;;;;;50.78;26.88;;;1.80;99.90;;;;;;6242378;22;20173;-84
2023/01/20 13:25:42;;;;;;;49.47;27.65;;;2.00;99.90;;;;;;6243494;22;20008;-81
2023/01/20 13:28:16;;;;;;;53.72;27.20;;;0.90;99.90;;;;;;6243269;22;20318;-83
2023/01/20 13:30:46;;;;;;;51.83;26.10;;;1.20;99.90;;;;;;6241632;22;20016;-83
2023/01/20 13:33:15;;;;;;;50.45;26.05;;;1.10;99.90;;;;;;6242687;22;20094;-82